createdAt,value
2018-12-20T00:00:23.283Z,100556.95
2018-12-20T00:02:50.721Z,100554.84
2018-12-20T00:05:18.235Z,100552.56
2018-12-20T00:07:45.785Z,100545.67
2018-12-20T00:10:13.325Z,100548.93
2018-12-20T00:12:40.740Z,100554.57
2018-12-20T00:15:08.268Z,100548.17
2018-12-20T00:17:41.388Z,100546.95
2018-12-20T00:20:09.112Z,100550.02
2018-12-20T00:22:36.657Z,100545.27
2018-12-20T00:25:05.440Z,100542.31
2018-12-20T00:27:32.917Z,100539.34
2018-12-20T00:30:00.420Z,100534.66
2018-12-20T00:32:27.860Z,100536.60
2018-12-20T00:34:55.372Z,100534.56
2018-12-20T00:37:22.845Z,100535.07
2018-12-20T00:39:50.424Z,100540.22
2018-12-20T00:42:18.003Z,100548.17
2018-12-20T00:44:45.484Z,100537.64
2018-12-20T00:47:12.966Z,100537.59
2018-12-20T00:49:40.576Z,100544.39
2018-12-20T00:52:08.065Z,100544.80
2018-12-20T00:54:35.512Z,100537.61
2018-12-20T00:57:02.992Z,100541.10
2018-12-20T00:59:30.492Z,100542.39
2018-12-20T01:01:58.036Z,100542.45
2018-12-20T01:04:25.530Z,100539.34
2018-12-20T01:06:53.067Z,100538.77
2018-12-20T01:09:20.613Z,100532.47
2018-12-20T01:11:48.232Z,100533.36
2018-12-20T01:14:15.664Z,100535.95
2018-12-20T01:16:43.072Z,100532.08
2018-12-20T01:19:10.659Z,100533.30
2018-12-20T01:21:38.100Z,100529.86
2018-12-20T01:24:05.625Z,100538.07
2018-12-20T01:26:33.149Z,100534.19
2018-12-20T01:29:00.721Z,100539.81
2018-12-20T01:31:28.241Z,100532.55
2018-12-20T01:33:55.649Z,100533.41
2018-12-20T01:36:23.117Z,100535.14
2018-12-20T01:38:50.521Z,100532.08
2018-12-20T01:41:18.081Z,100536.50
2018-12-20T01:43:45.478Z,100530.47
2018-12-20T01:46:13.001Z,100538.75
2018-12-20T01:48:40.637Z,100544.70
2018-12-20T01:51:08.068Z,100542.62
2018-12-20T01:53:35.500Z,100541.31
2018-12-20T01:56:03.061Z,100536.61
2018-12-20T01:58:30.589Z,100538.31
2018-12-20T02:00:58.213Z,100545.17
2018-12-20T02:03:25.712Z,100536.16
2018-12-20T02:05:53.205Z,100533.98
2018-12-20T02:08:20.673Z,100538.72
2018-12-20T02:10:48.081Z,100538.34
2018-12-20T02:13:15.545Z,100534.41
2018-12-20T02:15:42.933Z,100531.84
2018-12-20T02:18:10.391Z,100537.08
2018-12-20T02:20:38.009Z,100527.63
2018-12-20T02:23:05.438Z,100526.20
2018-12-20T02:25:32.893Z,100526.68
2018-12-20T02:28:00.414Z,100521.48
2018-12-20T02:30:28.085Z,100518.88
2018-12-20T02:32:55.683Z,100517.52
2018-12-20T02:35:23.432Z,100516.16
2018-12-20T02:37:51.029Z,100509.70
2018-12-20T02:40:18.529Z,100515.77
2018-12-20T02:42:45.932Z,100519.64
2018-12-20T02:45:13.583Z,100515.74
2018-12-20T02:47:41.102Z,100523.50
2018-12-20T02:50:08.571Z,100514.00
2018-12-20T02:52:36.128Z,100516.59
2018-12-20T02:55:03.734Z,100508.41
2018-12-20T02:57:45.734Z,100516.95
2018-12-20T03:00:13.237Z,100510.09
2018-12-20T03:02:41.047Z,100511.00
2018-12-20T03:05:08.522Z,100505.82
2018-12-20T03:07:52.753Z,100503.27
2018-12-20T03:10:20.443Z,100508.50
2018-12-20T03:12:48.094Z,100505.06
2018-12-20T03:18:07.979Z,100508.91
2018-12-20T03:20:56.475Z,100500.30
2018-12-20T03:23:24.040Z,100501.95
2018-12-20T03:25:51.601Z,100499.81
2018-12-20T03:28:19.238Z,100496.41
2018-12-20T03:30:46.990Z,100488.61
2018-12-20T03:33:14.614Z,100486.92
2018-12-20T03:35:42.154Z,100490.84
2018-12-20T03:38:09.646Z,100493.38
2018-12-20T03:40:37.179Z,100479.14
2018-12-20T03:43:04.673Z,100489.49
2018-12-20T03:45:38.333Z,100480.42
2018-12-20T03:48:05.823Z,100487.78
2018-12-20T03:50:33.258Z,100485.17
2018-12-20T03:53:00.913Z,100482.62
2018-12-20T03:55:28.397Z,100489.96
2018-12-20T03:57:56.106Z,100482.67
2018-12-20T04:00:23.836Z,100487.80
2018-12-20T04:02:51.228Z,100496.84
2018-12-20T04:05:19.154Z,100489.50
2018-12-20T04:07:46.762Z,100496.44
2018-12-20T04:10:14.257Z,100490.80
2018-12-20T04:12:41.720Z,100497.33
2018-12-20T04:15:09.167Z,100501.58
2018-12-20T04:17:36.647Z,100493.02
2018-12-20T04:20:05.277Z,100493.48
2018-12-20T04:22:32.719Z,100493.91
2018-12-20T04:25:00.199Z,100497.34
2018-12-20T04:27:27.696Z,100496.50
2018-12-20T04:29:55.192Z,100493.86
2018-12-20T04:32:22.728Z,100482.67
2018-12-20T04:34:50.147Z,100493.04
2018-12-20T04:37:17.843Z,100497.80
2018-12-20T04:39:45.298Z,100494.73
2018-12-20T04:42:12.789Z,100502.08
2018-12-20T04:44:40.393Z,100507.24
2018-12-20T04:47:07.977Z,100501.66
2018-12-20T04:49:51.892Z,100500.31
2018-12-20T04:52:19.593Z,100499.46
2018-12-20T04:54:47.010Z,100508.97
2018-12-20T04:57:27.286Z,100504.66
2018-12-20T04:59:54.942Z,100508.48
2018-12-20T05:02:30.830Z,100512.38
2018-12-20T05:07:57.906Z,100509.38
2018-12-20T05:10:31.524Z,100514.13
2018-12-20T05:12:58.931Z,100512.86
2018-12-20T05:15:26.443Z,100519.70
2018-12-20T05:17:54.125Z,100527.47
2018-12-20T05:20:21.638Z,100521.02
2018-12-20T05:22:49.202Z,100517.18
2018-12-20T05:25:16.672Z,100526.26
2018-12-20T05:27:44.288Z,100523.22
2018-12-20T05:30:12.618Z,100525.36
2018-12-20T05:32:40.163Z,100522.72
2018-12-20T05:35:07.742Z,100524.48
2018-12-20T05:37:35.402Z,100522.31
2018-12-20T05:40:03.030Z,100524.87
2018-12-20T05:42:30.518Z,100521.50
2018-12-20T05:44:58.050Z,100521.41
2018-12-20T05:47:25.640Z,100531.77
2018-12-20T05:49:53.085Z,100526.67
2018-12-20T05:52:20.603Z,100528.40
2018-12-20T05:54:48.014Z,100529.25
2018-12-20T05:57:15.435Z,100529.69
2018-12-20T05:59:42.953Z,100530.60
2018-12-20T06:02:10.388Z,100529.68
2018-12-20T06:04:37.841Z,100531.42
2018-12-20T06:07:05.239Z,100530.48
2018-12-20T06:09:32.736Z,100525.77
2018-12-20T06:12:00.141Z,100530.06
2018-12-20T06:14:27.555Z,100536.11
2018-12-20T06:16:55.032Z,100535.67
2018-12-20T06:19:22.436Z,100537.42
2018-12-20T06:21:49.839Z,100536.54
2018-12-20T06:24:17.344Z,100542.62
2018-12-20T06:26:44.735Z,100554.23
2018-12-20T06:29:12.133Z,100553.70
2018-12-20T06:31:39.540Z,100554.56
2018-12-20T06:34:07.024Z,100554.14
2018-12-20T06:36:34.431Z,100554.09
2018-12-20T06:39:01.824Z,100556.27
2018-12-20T06:41:29.230Z,100553.27
2018-12-20T06:43:56.616Z,100551.56
2018-12-20T06:46:24.056Z,100557.52
2018-12-20T06:48:51.464Z,100561.84
2018-12-20T06:51:18.960Z,100567.89
2018-12-20T06:53:46.361Z,100568.70
2018-12-20T06:56:13.764Z,100570.89
2018-12-20T06:58:41.151Z,100571.28
2018-12-20T07:01:08.556Z,100576.03
2018-12-20T07:03:35.947Z,100581.51
2018-12-20T07:06:03.368Z,100580.71
2018-12-20T07:08:30.762Z,100580.15
2018-12-20T07:10:58.170Z,100581.52
2018-12-20T07:13:25.568Z,100583.95
2018-12-20T07:15:52.971Z,100586.21
2018-12-20T07:18:21.056Z,100585.34
2018-12-20T07:20:48.455Z,100588.42
2018-12-20T07:23:15.843Z,100594.02
2018-12-20T07:25:43.240Z,100598.78
2018-12-20T07:28:10.635Z,100585.86
2018-12-20T07:30:38.080Z,100591.96
2018-12-20T07:33:05.478Z,100594.22
2018-12-20T07:35:32.875Z,100589.86
2018-12-20T07:38:00.348Z,100596.82
2018-12-20T07:40:27.745Z,100594.66
2018-12-20T07:42:55.136Z,100595.94
2018-12-20T07:45:22.547Z,100593.86
2018-12-20T07:47:49.940Z,100603.29
2018-12-20T07:50:17.337Z,100601.61
2018-12-20T07:52:44.745Z,100604.67
2018-12-20T07:55:12.131Z,100603.37
2018-12-20T07:57:40.456Z,100605.98
2018-12-20T08:00:07.944Z,100607.27
2018-12-20T08:02:35.343Z,100612.86
2018-12-20T08:05:02.739Z,100610.22
2018-12-20T08:07:30.196Z,100616.33
2018-12-20T08:09:57.609Z,100617.22
2018-12-20T08:12:25.020Z,100615.96
2018-12-20T08:14:52.420Z,100621.09
2018-12-20T08:17:19.815Z,100617.20
2018-12-20T08:19:47.220Z,100624.50
2018-12-20T08:22:14.621Z,100622.38
2018-12-20T08:24:42.020Z,100629.75
2018-12-20T08:27:09.568Z,100620.70
2018-12-20T08:29:36.987Z,100619.82
2018-12-20T08:32:04.388Z,100627.65
2018-12-20T08:34:31.833Z,100627.22
2018-12-20T08:36:59.278Z,100629.36
2018-12-20T08:39:26.673Z,100629.77
2018-12-20T08:41:54.068Z,100624.63
2018-12-20T08:44:21.460Z,100632.83
2018-12-20T08:46:54.373Z,100626.87
2018-12-20T08:49:18.253Z,100627.27
2018-12-20T08:51:49.156Z,100625.08
2018-12-20T08:54:15.176Z,100632.87
2018-12-20T08:56:42.580Z,100633.31
2018-12-20T08:59:09.973Z,100634.59
2018-12-20T09:01:40.954Z,100634.14
2018-12-20T09:04:08.335Z,100639.77
2018-12-20T09:06:35.758Z,100641.48
2018-12-20T09:09:04.577Z,100648.44
2018-12-20T09:11:31.966Z,100657.46
2018-12-20T09:13:59.357Z,100652.77
2018-12-20T09:16:26.771Z,100653.27
2018-12-20T09:18:54.170Z,100658.78
2018-12-20T09:21:21.568Z,100651.52
2018-12-20T09:23:48.979Z,100648.05
2018-12-20T09:26:16.377Z,100656.31
2018-12-20T09:28:43.773Z,100659.33
2018-12-20T09:31:11.204Z,100664.08
2018-12-20T09:33:38.605Z,100658.91
2018-12-20T09:36:06.043Z,100661.07
2018-12-20T09:38:33.438Z,100664.98
2018-12-20T09:41:00.857Z,100677.02
2018-12-20T09:43:29.209Z,100675.34
2018-12-20T09:45:56.604Z,100671.90
2018-12-20T09:48:24.039Z,100665.34
2018-12-20T09:50:51.458Z,100668.35
2018-12-20T09:53:20.988Z,100672.64
2018-12-20T09:55:48.379Z,100664.95
2018-12-20T09:58:15.815Z,100671.47
2018-12-20T10:00:43.210Z,100669.33
2018-12-20T10:03:10.606Z,100663.73
2018-12-20T10:05:38.013Z,100667.60
2018-12-20T10:08:05.409Z,100661.55
2018-12-20T10:10:32.827Z,100660.27
2018-12-20T10:13:00.321Z,100665.13
2018-12-20T10:15:27.777Z,100666.84
2018-12-20T10:17:55.230Z,100659.97
2018-12-20T10:20:22.621Z,100661.22
2018-12-20T10:22:50.021Z,100660.75
2018-12-20T10:25:17.425Z,100663.80
2018-12-20T10:27:44.828Z,100666.79
2018-12-20T10:30:13.260Z,100665.93
2018-12-20T10:32:40.677Z,100662.05
2018-12-20T10:35:08.126Z,100665.52
2018-12-20T10:37:35.576Z,100658.23
2018-12-20T10:40:03.953Z,100664.24
2018-12-20T10:42:31.357Z,100650.47
2018-12-20T10:44:58.781Z,100654.35
2018-12-20T10:47:29.201Z,100647.00
2018-12-20T10:49:55.655Z,100643.12
2018-12-20T10:52:23.103Z,100640.94
2018-12-20T10:54:50.497Z,100635.77
2018-12-20T10:57:17.958Z,100633.23
2018-12-20T10:59:45.404Z,100634.94
2018-12-20T11:02:18.373Z,100637.96
2018-12-20T11:04:51.284Z,100634.97
2018-12-20T11:07:24.227Z,100636.25
2018-12-20T11:09:57.369Z,100638.42
2018-12-20T11:12:37.002Z,100635.39
2018-12-20T11:15:10.102Z,100633.67
2018-12-20T11:17:44.152Z,100628.89
2018-12-20T11:20:15.281Z,100626.74
2018-12-20T11:22:45.674Z,100626.30
2018-12-20T11:25:19.389Z,100624.57
2018-12-20T11:27:59.957Z,100625.45
2018-12-20T11:30:30.592Z,100625.00
2018-12-20T11:33:04.483Z,100629.73
2018-12-20T11:35:35.787Z,100621.09
2018-12-20T11:38:04.605Z,100625.02
2018-12-20T11:40:33.897Z,100625.45
2018-12-20T11:43:11.200Z,100622.86
2018-12-20T11:45:44.579Z,100629.34
2018-12-20T11:48:18.369Z,100622.84
2018-12-20T11:50:48.977Z,100625.45
2018-12-20T11:53:22.061Z,100617.67
2018-12-20T11:55:52.333Z,100615.94
2018-12-20T11:58:26.133Z,100619.39
2018-12-20T12:00:58.232Z,100619.38
2018-12-20T12:03:31.980Z,100615.08
2018-12-20T12:06:05.999Z,100618.16
2018-12-20T12:08:40.053Z,100618.59
2018-12-20T12:11:13.232Z,100622.07
2018-12-20T12:13:51.165Z,100615.14
2018-12-20T12:16:28.452Z,100616.00
2018-12-20T12:19:03.403Z,100616.45
2018-12-20T12:21:31.935Z,100615.12
2018-12-20T12:24:04.956Z,100616.00
2018-12-20T12:26:38.837Z,100613.83
2018-12-20T12:29:11.992Z,100603.89
2018-12-20T12:31:43.137Z,100611.66
2018-12-20T12:34:22.866Z,100619.43
2018-12-20T12:36:56.893Z,100610.33
2018-12-20T12:39:30.810Z,100606.37
2018-12-20T12:42:01.840Z,100608.90
2018-12-20T12:44:35.637Z,100605.92
2018-12-20T12:47:09.655Z,100618.98
2018-12-20T12:49:43.690Z,100623.77
2018-12-20T12:52:15.003Z,100629.83
2018-12-20T12:54:45.353Z,100626.78
2018-12-20T12:57:15.371Z,100629.38
2018-12-20T12:59:46.415Z,100625.47
2018-12-20T13:02:17.711Z,100624.59
2018-12-20T13:04:51.337Z,100625.48
2018-12-20T13:07:24.607Z,100619.42
2018-12-20T13:09:57.770Z,100623.27
2018-12-20T13:12:31.128Z,100619.43
2018-12-20T13:15:06.600Z,100625.50
2018-12-20T13:17:40.066Z,100619.02
2018-12-20T13:20:13.343Z,100622.05
2018-12-20T13:22:47.228Z,100612.97
2018-12-20T13:25:18.247Z,100613.42
2018-12-20T13:27:51.688Z,100613.82
2018-12-20T13:30:26.317Z,100615.13
2018-12-20T13:33:00.645Z,100616.42
2018-12-20T13:35:34.748Z,100618.15
2018-12-20T13:38:08.037Z,100621.16
2018-12-20T13:40:41.128Z,100614.21
2018-12-20T13:43:10.479Z,100618.12
2018-12-20T13:45:45.398Z,100614.23
2018-12-20T13:48:22.014Z,100609.89
2018-12-20T13:50:46.998Z,100608.19
2018-12-20T13:53:21.545Z,100608.17
2018-12-20T13:55:54.871Z,100611.21
2018-12-20T13:58:28.781Z,100616.82
2018-12-20T14:01:02.641Z,100613.34
2018-12-20T14:03:36.422Z,100617.67
2018-12-20T14:06:05.553Z,100612.48
2018-12-20T14:08:39.520Z,100612.48
2018-12-20T14:11:10.606Z,100608.59
2018-12-20T14:13:44.597Z,100611.64
2018-12-20T14:16:17.841Z,100616.80
2018-12-20T14:18:51.835Z,100618.54
2018-12-20T14:21:25.059Z,100617.67
2018-12-20T14:23:55.469Z,100624.56
2018-12-20T14:26:29.419Z,100632.38
2018-12-20T14:31:53.611Z,100636.27
2018-12-20T14:34:22.803Z,100634.51
2018-12-20T14:36:56.831Z,100644.47
2018-12-20T14:39:30.795Z,100639.26
2018-12-20T14:42:02.260Z,100640.10
2018-12-20T14:44:36.133Z,100639.25
2018-12-20T14:47:09.319Z,100637.95
2018-12-20T14:49:43.318Z,100635.80
2018-12-20T14:52:14.433Z,100643.54
2018-12-20T14:54:48.165Z,100640.54
2018-12-20T14:57:22.182Z,100638.36
2018-12-20T14:59:55.998Z,100641.38
2018-12-20T15:02:29.796Z,100644.83
2018-12-20T15:05:02.957Z,100640.06
2018-12-20T15:07:34.164Z,100645.27
2018-12-20T15:10:08.015Z,100647.00
2018-12-20T15:12:41.862Z,100647.02
2018-12-20T15:15:14.048Z,100642.67
2018-12-20T15:17:47.663Z,100641.37
2018-12-20T15:20:21.569Z,100646.97
2018-12-20T15:22:54.398Z,100641.78
2018-12-20T15:25:26.920Z,100647.86
2018-12-20T15:28:00.764Z,100644.80
2018-12-20T15:30:39.621Z,100655.59
2018-12-20T15:33:13.018Z,100659.92
2018-12-20T15:35:58.628Z,100669.88
2018-12-20T15:38:32.214Z,100664.66
2018-12-20T15:41:06.244Z,100671.52
2018-12-20T15:43:40.234Z,100673.28
2018-12-20T15:46:11.410Z,100671.09
2018-12-20T15:48:44.679Z,100677.59
2018-12-20T15:51:15.931Z,100681.50
2018-12-20T15:53:58.000Z,100684.06
2018-12-20T15:56:36.233Z,100685.36
2018-12-20T15:59:11.491Z,100690.94
2018-12-20T16:01:44.765Z,100692.25
2018-12-20T16:04:20.725Z,100693.53
2018-12-20T16:06:54.117Z,100701.30
2018-12-20T16:09:33.150Z,100696.98
2018-12-20T16:12:07.056Z,100704.72
2018-12-20T16:14:41.896Z,100701.21
2018-12-20T16:17:15.910Z,100701.25
2018-12-20T16:19:49.816Z,100706.02
2018-12-20T16:22:20.925Z,100713.30
2018-12-20T16:24:49.956Z,100714.59
2018-12-20T16:27:23.772Z,100719.34
2018-12-20T16:29:59.849Z,100721.91
2018-12-20T16:32:32.188Z,100716.78
2018-12-20T16:35:06.294Z,100719.73
2018-12-20T16:37:37.552Z,100730.98
2018-12-20T16:40:11.252Z,100728.44
2018-12-20T16:42:49.142Z,100730.98
2018-12-20T16:45:20.365Z,100735.80
2018-12-20T16:47:54.392Z,100732.33
2018-12-20T16:50:38.267Z,100737.48
2018-12-20T16:53:08.877Z,100743.13
2018-12-20T16:55:40.553Z,100740.05
2018-12-20T16:58:14.821Z,100742.63
2018-12-20T17:00:46.081Z,100741.75
2018-12-20T17:03:20.109Z,100740.02
2018-12-20T17:05:51.221Z,100742.25
2018-12-20T17:08:29.047Z,100746.14
2018-12-20T17:11:04.341Z,100740.98
2018-12-20T17:13:38.769Z,100746.14
2018-12-20T17:19:01.946Z,100741.74
2018-12-20T17:21:29.336Z,100744.77
2018-12-20T17:23:56.732Z,100736.97
2018-12-20T17:26:24.154Z,100740.00
2018-12-20T17:28:51.540Z,100738.69
2018-12-20T17:31:22.423Z,100731.39
2018-12-20T17:33:49.864Z,100734.48
2018-12-20T17:36:17.252Z,100737.06
2018-12-20T17:38:44.640Z,100737.02
2018-12-20T17:41:12.348Z,100735.76
2018-12-20T17:43:53.466Z,100729.25
2018-12-20T17:46:20.847Z,100734.84
2018-12-20T17:48:48.242Z,100740.45
2018-12-20T17:51:15.626Z,100733.13
2018-12-20T17:53:43.062Z,100732.27
2018-12-20T17:56:10.476Z,100734.02
2018-12-20T17:58:37.918Z,100730.58
2018-12-20T18:01:05.296Z,100735.31
2018-12-20T18:03:32.669Z,100738.36
2018-12-20T18:06:00.059Z,100734.89
2018-12-20T18:08:27.441Z,100729.70
2018-12-20T18:10:54.831Z,100729.68
2018-12-20T18:13:22.219Z,100730.55
2018-12-20T18:15:49.604Z,100729.70
2018-12-20T18:18:16.987Z,100732.27
2018-12-20T18:20:44.445Z,100727.56
2018-12-20T18:23:11.817Z,100730.12
2018-12-20T18:25:39.209Z,100723.67
2018-12-20T18:28:06.610Z,100735.69
2018-12-20T18:30:35.744Z,100738.31
2018-12-20T18:33:09.487Z,100745.25
2018-12-20T18:35:39.797Z,100740.90
2018-12-20T18:38:13.784Z,100734.87
2018-12-20T18:40:44.328Z,100733.13
2018-12-20T18:43:15.448Z,100733.18
2018-12-20T18:45:46.505Z,100743.49
2018-12-20T18:48:21.168Z,100745.23
2018-12-20T18:50:51.505Z,100750.44
2018-12-20T18:53:25.390Z,100748.67
2018-12-20T18:55:56.587Z,100754.73
2018-12-20T18:58:26.961Z,100747.80
2018-12-20T19:00:55.672Z,100754.71
2018-12-20T19:03:26.506Z,100752.98
2018-12-20T19:05:57.629Z,100745.58
2018-12-20T19:08:28.632Z,100747.73
2018-12-20T19:11:01.695Z,100752.13
2018-12-20T19:13:32.788Z,100747.35
2018-12-20T19:16:06.506Z,100745.22
2018-12-20T19:18:40.954Z,100746.91
2018-12-20T19:21:11.630Z,100747.73
2018-12-20T19:23:45.272Z,100744.77
2018-12-20T19:26:14.212Z,100749.94
2018-12-20T19:28:45.144Z,100755.13
2018-12-20T19:31:16.921Z,100757.23
2018-12-20T19:33:52.179Z,100751.19
2018-12-20T19:36:25.391Z,100753.44
2018-12-20T19:38:56.597Z,100750.85
2018-12-20T19:41:27.529Z,100758.20
2018-12-20T19:44:01.122Z,100756.04
2018-12-20T19:46:35.228Z,100756.02
2018-12-20T19:49:09.129Z,100748.67
2018-12-20T19:51:44.279Z,100745.68
2018-12-20T19:54:17.954Z,100747.38
2018-12-20T19:56:51.071Z,100753.39
2018-12-20T19:59:25.251Z,100753.83
2018-12-20T20:02:04.281Z,100752.17
2018-12-20T20:04:29.833Z,100748.31
2018-12-20T20:07:02.616Z,100746.56
2018-12-20T20:09:49.392Z,100742.64
2018-12-20T20:12:20.300Z,100739.19
2018-12-20T20:14:51.547Z,100738.78
2018-12-20T20:17:22.372Z,100740.52
2018-12-20T20:19:59.745Z,100743.49
2018-12-20T20:22:28.485Z,100745.73
2018-12-20T20:25:02.346Z,100731.47
2018-12-20T20:27:40.300Z,100740.54
2018-12-20T20:30:13.727Z,100741.38
2018-12-20T20:32:45.108Z,100741.02
2018-12-20T20:35:16.317Z,100734.53
2018-12-20T20:37:47.204Z,100737.95
2018-12-20T20:40:18.196Z,100727.54
2018-12-20T20:42:48.937Z,100724.52
2018-12-20T20:45:19.952Z,100709.83
2018-12-20T20:47:51.017Z,100718.48
2018-12-20T20:50:22.751Z,100722.82
2018-12-20T20:52:58.063Z,100723.62
2018-12-20T20:55:29.003Z,100715.94
2018-12-20T20:58:02.771Z,100719.35
2018-12-20T21:00:36.633Z,100719.35
2018-12-20T21:03:07.097Z,100714.16
2018-12-20T21:05:36.300Z,100711.61
2018-12-20T21:08:05.194Z,100718.48
2018-12-20T21:10:36.132Z,100715.45
2018-12-20T21:13:10.144Z,100713.31
2018-12-20T21:15:40.718Z,100711.16
2018-12-20T21:18:11.935Z,100721.13
2018-12-20T21:20:41.236Z,100735.78
2018-12-20T21:23:11.965Z,100739.69
2018-12-20T21:25:43.186Z,100736.67
2018-12-20T21:28:17.070Z,100734.91
2018-12-20T21:30:50.280Z,100742.67
2018-12-20T21:33:23.863Z,100739.22
2018-12-20T21:35:57.044Z,100734.97
2018-12-20T21:38:28.239Z,100734.09
2018-12-20T21:40:59.332Z,100736.25
2018-12-20T21:43:28.576Z,100740.14
2018-12-20T21:45:59.675Z,100737.13
2018-12-20T21:48:33.656Z,100738.37
2018-12-20T21:54:00.484Z,100735.80
2018-12-20T21:56:31.482Z,100736.22
2018-12-20T21:59:17.928Z,100738.01
2018-12-20T22:01:49.012Z,100737.12
2018-12-20T22:04:20.211Z,100742.33
2018-12-20T22:06:50.946Z,100743.57
2018-12-20T22:09:21.836Z,100747.48
2018-12-20T22:11:52.861Z,100743.62
2018-12-20T22:14:29.351Z,100740.16
2018-12-20T22:17:03.789Z,100745.81
2018-12-20T22:19:34.989Z,100745.84
2018-12-20T22:22:05.988Z,100740.22
2018-12-20T22:27:08.829Z,100744.53
2018-12-20T22:29:40.031Z,100745.36
2018-12-20T22:32:11.254Z,100747.95
2018-12-20T22:34:44.744Z,100747.55
2018-12-20T22:37:15.837Z,100749.72
2018-12-20T22:39:49.620Z,100753.23
2018-12-20T22:42:22.747Z,100761.84
2018-12-20T22:44:53.052Z,100763.94
2018-12-20T22:47:26.825Z,100760.11
2018-12-20T22:49:55.937Z,100752.69
2018-12-20T22:52:26.755Z,100745.37
2018-12-20T22:54:57.645Z,100758.39
2018-12-20T22:57:32.160Z,100758.38
2018-12-20T23:00:05.698Z,100766.58
2018-12-20T23:02:39.405Z,100766.55
2018-12-20T23:05:08.643Z,100758.43
2018-12-20T23:07:39.353Z,100749.30
2018-12-20T23:10:10.561Z,100747.94
2018-12-20T23:12:37.962Z,100739.72
2018-12-20T23:15:05.760Z,100744.47
2018-12-20T23:17:33.153Z,100749.24
2018-12-20T23:20:00.559Z,100741.01
2018-12-20T23:22:27.946Z,100743.59
2018-12-20T23:24:55.344Z,100735.83
2018-12-20T23:27:22.741Z,100738.45
2018-12-20T23:29:50.144Z,100734.16
2018-12-20T23:32:17.536Z,100726.33
2018-12-20T23:34:44.923Z,100725.92
2018-12-20T23:37:12.316Z,100722.92
2018-12-20T23:39:39.724Z,100719.86
2018-12-20T23:42:07.159Z,100719.45
2018-12-20T23:44:34.613Z,100725.92
2018-12-20T23:47:02.036Z,100708.73
2018-12-20T23:49:29.432Z,100705.23
2018-12-20T23:52:08.991Z,100698.30
2018-12-20T23:54:39.871Z,100695.25
2018-12-20T23:57:07.269Z,100696.11
2018-12-20T23:59:34.684Z,100696.14
